Time;durP1;ratioP1;P1;durP2;ratioP2;P2;SDS_P1;SDS_P2;PMS_P1;PMS_P2;Temp;Humidity;BMP_temperature;BMP_pressure;BME280_temperature;BME280_humidity;BME280_pressure;Samples;Min_cycle;Max_cycle;Signal;HPM_P1;HPM_P2
2022/01/24 00:01:23;;;;;;;8.25;5.55;;;0.90;99.90;;;0.06;100.00;98792.50;5033914;28;20418;-48
2022/01/24 00:03:55;;;;;;;11.27;5.38;;;0.90;99.90;;;-0.07;100.00;98780.88;5035553;28;20435;-52
2022/01/24 00:06:21;;;;;;;8.98;5.22;;;0.80;99.90;;;-0.08;100.00;98784.34;5026923;28;20383;-48
2022/01/24 00:08:47;;;;;;;11.50;6.28;;;0.70;99.90;;;-0.19;100.00;98773.66;5038711;28;20032;-50
2022/01/24 00:11:16;;;;;;;8.95;5.53;;;0.70;99.90;;;-0.27;100.00;98763.09;5041632;28;20037;-47
2022/01/24 00:16:34;;;;;;;10.75;5.82;;;0.60;99.90;;;-0.25;100.00;98766.59;5039821;28;20145;-48
2022/01/24 00:26:58;;;;;;;9.55;5.70;;;0.40;99.90;;;-0.41;100.00;98764.41;5034590;28;20106;-51
2022/01/24 00:29:25;;;;;;;8.75;5.35;;;0.40;99.90;;;-0.44;100.00;98760.00;5034557;28;20078;-52
2022/01/24 00:31:53;;;;;;;8.75;5.38;;;0.40;99.90;;;-0.46;100.00;98760.81;5033239;28;20158;-51
2022/01/24 00:34:19;;;;;;;8.95;5.57;;;0.30;99.90;;;-0.49;100.00;98771.06;5035415;28;20045;-53
2022/01/24 00:36:49;;;;;;;9.38;5.43;;;0.30;99.90;;;-0.51;100.00;98764.97;5035776;28;20040;-48
2022/01/24 00:39:15;;;;;;;10.98;5.97;;;0.30;99.90;;;-0.52;100.00;98763.19;5033999;28;20036;-51
2022/01/24 00:42:17;;;;;;;11.23;5.82;;;0.30;99.90;;;-0.52;100.00;98758.00;5032964;28;20501;-50
2022/01/24 00:46:58;;;;;;;9.77;6.20;;;0.30;99.90;;;-0.67;100.00;98741.19;5033699;28;20039;-48
2022/01/24 00:54:53;;;;;;;10.63;6.10;;;0.20;99.90;;;-0.70;100.00;98733.34;5024961;28;20052;-51
2022/01/24 00:57:20;;;;;;;11.68;6.70;;;0.20;99.90;;;-0.67;100.00;98746.38;5031941;28;20029;-49
2022/01/24 00:59:47;;;;;;;10.80;6.65;;;0.20;99.90;;;-0.71;100.00;98734.19;5033128;28;20262;-52
2022/01/24 01:02:14;;;;;;;10.10;6.30;;;0.20;99.90;;;-0.68;100.00;98743.72;5032481;28;20030;-50
2022/01/24 01:04:58;;;;;;;12.18;6.10;;;0.20;99.90;;;-0.69;100.00;98749.78;5031781;28;20129;-47
2022/01/24 01:07:39;;;;;;;11.82;6.07;;;0.10;99.90;;;-0.70;100.00;98746.31;5029668;28;20407;-47
2022/01/24 01:18:21;;;;;;;11.43;6.43;;;0.10;99.90;;;-0.77;100.00;98767.69;5033234;28;20066;-48
2022/01/24 01:23:19;;;;;;;11.90;6.50;;;0.10;99.90;;;-0.84;100.00;98778.69;5034837;28;20037;-44
2022/01/24 01:25:46;;;;;;;10.95;6.85;;;0.00;99.90;;;-0.96;100.00;98761.94;5034149;28;20290;-53
2022/01/24 01:28:12;;;;;;;11.65;6.93;;;0.00;99.90;;;-0.90;100.00;98769.00;5032833;28;20033;-52
2022/01/24 01:30:43;;;;;;;10.18;6.80;;;0.00;99.90;;;-0.91;100.00;98772.44;5030884;28;20057;-51
2022/01/24 01:33:21;;;;;;;12.17;7.17;;;0.00;99.90;;;-0.90;100.00;98773.31;5033320;28;20425;-48
2022/01/24 01:36:08;;;;;;;11.48;7.47;;;0.00;99.90;;;-0.91;100.00;98766.41;5029734;28;20253;-48
2022/01/24 01:54:54;;;;;;;11.50;7.25;;;-0.10;99.90;;;-1.08;100.00;98763.25;5038149;28;20074;-52
2022/01/24 01:57:22;;;;;;;11.73;7.18;;;-0.20;99.90;;;-1.07;100.00;98762.44;5041891;28;20036;-49
2022/01/24 01:59:48;;;;;;;12.35;6.97;;;-0.20;99.90;;;-1.09;100.00;98769.28;5037635;28;20422;-50
2022/01/24 02:02:15;;;;;;;10.38;6.30;;;-0.20;99.90;;;-1.13;100.00;98770.91;5034393;28;20466;-52
2022/01/24 02:04:41;;;;;;;10.75;6.32;;;-0.20;99.90;;;-1.19;100.00;98768.97;5034844;28;20045;-50
2022/01/24 02:07:15;;;;;;;10.80;6.68;;;-0.30;99.90;;;-1.18;100.00;98767.28;5033487;28;20398;-50
2022/01/24 02:09:43;;;;;;;11.75;6.75;;;-0.30;99.90;;;-1.22;100.00;98765.41;5036284;28;20558;-45
2022/01/24 02:12:10;;;;;;;11.75;7.18;;;-0.30;99.90;;;-1.30;100.00;98756.53;5037827;28;20078;-51
2022/01/24 02:14:40;;;;;;;12.57;7.07;;;-0.40;99.90;;;-1.28;100.00;98760.06;5038264;28;20029;-50
2022/01/24 02:17:12;;;;;;;11.82;6.75;;;-0.40;99.90;;;-1.33;100.00;98757.31;5032485;28;21393;-48
2022/01/24 02:24:57;;;;;;;11.70;6.78;;;-0.50;99.90;;;-1.39;100.00;98760.59;5037029;28;20494;-50
2022/01/24 02:27:26;;;;;;;11.63;6.75;;;-0.50;99.90;;;-1.42;100.00;98754.44;5037762;28;20037;-51
2022/01/24 02:32:39;;;;;;;11.90;6.68;;;-0.60;99.90;;;-1.45;100.00;98744.00;5040195;28;20033;-47
2022/01/24 02:35:08;;;;;;;12.75;7.07;;;-0.60;99.90;;;-1.46;100.00;98750.84;5035588;28;20037;-51
2022/01/24 02:37:34;;;;;;;12.70;7.60;;;-0.60;99.90;;;-1.45;100.00;98742.28;5037703;28;20371;-50
2022/01/24 02:40:08;;;;;;;11.38;6.90;;;-0.60;99.90;;;-1.49;100.00;98735.25;5035670;28;20060;-51
2022/01/24 02:48:26;;;;;;;10.95;6.75;;;-0.50;99.90;;;-1.43;100.00;98740.63;5031702;28;20120;-47
2022/01/24 02:53:28;;;;;;;11.98;6.90;;;-0.50;99.90;;;-1.52;100.00;98718.75;5033811;28;20037;-47
2022/01/24 02:55:54;;;;;;;13.13;6.78;;;-0.50;99.90;;;-1.47;100.00;98736.19;5029819;28;20491;-53
2022/01/24 02:58:20;;;;;;;10.80;6.70;;;-0.60;99.90;;;-1.50;100.00;98741.25;5028268;28;20033;-50
2022/01/24 03:00:48;;;;;;;12.15;6.90;;;-0.60;99.90;;;-1.51;100.00;98736.88;5032066;28;20029;-51
2022/01/24 03:03:14;;;;;;;10.02;6.45;;;-0.60;99.90;;;-1.52;100.00;98729.09;5030649;28;20104;-51
2022/01/24 03:05:40;;;;;;;13.60;7.15;;;-0.60;99.90;;;-1.52;100.00;98731.69;5034884;28;20043;-47
2022/01/24 03:08:06;;;;;;;10.57;6.65;;;-0.70;99.90;;;-1.58;100.00;98728.06;5035135;28;20458;-49
2022/01/24 03:10:45;;;;;;;10.43;6.78;;;-0.70;99.90;;;-1.62;100.00;98714.97;5033848;28;20017;-47
2022/01/24 03:15:54;;;;;;;10.43;6.45;;;-0.70;99.90;;;-1.61;100.00;98717.63;5028872;28;20049;-48
2022/01/24 03:18:21;;;;;;;9.45;6.10;;;-0.70;99.90;;;-1.61;100.00;98714.16;5034095;28;20036;-49
2022/01/24 03:20:47;;;;;;;11.25;6.85;;;-0.70;99.90;;;-1.66;100.00;98710.53;5031270;28;20383;-50
2022/01/24 03:23:16;;;;;;;10.68;6.97;;;-0.70;99.90;;;-1.66;100.00;98714.00;5029678;28;20024;-51
2022/01/24 03:25:43;;;;;;;11.82;6.90;;;-0.70;99.90;;;-1.68;100.00;98709.63;5034615;28;20087;-49
2022/01/24 03:28:09;;;;;;;11.95;7.47;;;-0.80;99.90;;;-1.70;100.00;98703.53;5027872;28;20025;-51
2022/01/24 03:30:37;;;;;;;12.07;7.65;;;-0.80;99.90;;;-1.68;100.00;98719.97;5029190;28;20044;-53
2022/01/24 03:33:04;;;;;;;11.50;7.22;;;-0.80;99.90;;;-1.69;100.00;98716.47;5039088;28;20152;-47
2022/01/24 03:35:31;;;;;;;12.35;7.40;;;-0.80;99.90;;;-1.76;100.00;98715.41;5028456;28;20029;-50
2022/01/24 03:37:57;;;;;;;12.30;7.43;;;-0.90;99.90;;;-1.80;100.00;98703.19;5030021;28;20037;-48
2022/01/24 03:40:23;;;;;;;12.90;8.00;;;-0.90;99.90;;;-1.79;100.00;98704.09;5033964;28;20039;-48
2022/01/24 03:42:49;;;;;;;12.27;7.20;;;-0.90;99.90;;;-1.82;100.00;98706.56;5035402;28;20049;-51
2022/01/24 03:45:23;;;;;;;13.77;7.72;;;-0.90;99.90;;;-1.76;100.00;98714.50;5036254;28;20192;-49
2022/01/24 03:48:08;;;;;;;11.80;7.40;;;-0.90;99.90;;;-1.77;100.00;98721.41;5034757;28;20024;-46
2022/01/24 03:50:34;;;;;;;13.70;7.97;;;-0.90;99.90;;;-1.81;100.00;98714.38;5031582;28;20473;-49
2022/01/24 03:53:00;;;;;;;12.13;7.25;;;-0.90;99.90;;;-1.86;100.00;98708.19;5037184;28;20040;-52
2022/01/24 03:55:26;;;;;;;12.98;7.97;;;-0.90;99.90;;;-1.82;100.00;98706.56;5033000;28;20033;-47
2022/01/24 03:57:52;;;;;;;13.55;7.88;;;-0.90;99.90;;;-1.88;100.00;98696.91;5034694;28;20108;-52
2022/01/24 04:00:18;;;;;;;11.23;7.10;;;-0.90;99.90;;;-1.84;100.00;98709.09;5032930;28;20028;-53
2022/01/24 04:02:44;;;;;;;11.20;7.82;;;-0.90;99.90;;;-1.82;100.00;98704.84;5032072;28;20033;-51
2022/01/24 04:05:10;;;;;;;12.63;7.75;;;-0.90;99.90;;;-1.82;100.00;98697.09;5039974;28;20037;-53
2022/01/24 04:07:36;;;;;;;12.30;7.68;;;-0.90;99.90;;;-1.79;100.00;98693.75;5035617;28;20327;-49
2022/01/24 04:10:08;;;;;;;13.35;7.63;;;-0.90;99.90;;;-1.91;100.00;98670.94;5035837;28;20040;-48
2022/01/24 04:12:37;;;;;;;13.32;7.80;;;-0.90;99.90;;;-1.77;100.00;98703.31;5031753;28;20032;-48
2022/01/24 04:17:45;;;;;;;13.13;7.53;;;-0.80;99.90;;;-1.93;100.00;98681.22;5033483;28;20414;-47
2022/01/24 04:22:58;;;;;;;11.73;7.72;;;-0.90;99.90;;;-1.85;100.00;98704.75;5037501;28;20091;-48
2022/01/24 04:25:24;;;;;;;13.98;7.95;;;-0.90;99.90;;;-1.85;100.00;98706.47;5029932;28;20065;-46
2022/01/24 04:27:55;;;;;;;12.15;7.43;;;-0.90;99.90;;;-1.86;100.00;98705.59;5034766;28;20032;-51
2022/01/24 04:30:22;;;;;;;13.43;8.00;;;-0.90;99.90;;;-1.86;100.00;98702.13;5033321;28;20060;-46
2022/01/24 04:32:48;;;;;;;14.32;8.00;;;-1.00;99.90;;;-1.88;100.00;98701.19;5035389;28;20020;-49
2022/01/24 04:35:14;;;;;;;14.35;8.07;;;-1.00;99.90;;;-2.05;100.00;98674.78;5030116;28;20029;-47
2022/01/24 04:37:40;;;;;;;12.90;7.13;;;-1.00;99.90;;;-1.87;100.00;98701.22;5033499;28;20034;-49
2022/01/24 04:40:07;;;;;;;12.95;8.23;;;-1.00;99.90;;;-1.92;100.00;98702.78;5037305;28;20037;-50
2022/01/24 04:42:46;;;;;;;12.65;7.05;;;-1.00;99.90;;;-1.90;100.00;98700.25;5029391;28;20102;-51
2022/01/24 04:45:32;;;;;;;11.75;7.43;;;-1.00;99.90;;;-1.86;100.00;98707.31;5044417;22;20128;-40
2022/01/24 04:50:46;;;;;;;12.38;7.05;;;-0.90;99.90;;;-1.87;100.00;98700.38;4998159;28;20431;-40
2022/01/24 04:53:42;;;;;;;12.95;7.68;;;-0.90;99.90;;;-1.86;100.00;98704.72;4997413;28;20453;-41
2022/01/24 04:55:58;;;;;;;12.60;7.85;;;-1.00;99.90;;;-1.95;100.00;98701.00;4993778;28;20046;-38
2022/01/24 04:58:24;;;;;;;13.25;7.88;;;-1.00;99.90;;;-1.90;100.00;98711.50;4996267;28;20041;-39
2022/01/24 05:00:50;;;;;;;10.45;7.22;;;-1.00;99.90;;;-1.92;100.00;98719.19;5003794;28;20033;-41
2022/01/24 05:03:15;;;;;;;12.73;7.85;;;-1.00;99.90;;;-1.92;100.00;98719.19;5006197;28;20029;-36
2022/01/24 05:05:42;;;;;;;11.15;7.10;;;-1.00;99.90;;;-1.90;100.00;98719.25;4996506;28;20485;-37
2022/01/24 05:08:09;;;;;;;13.13;7.72;;;-1.00;99.90;;;-1.94;100.00;98720.84;5009257;28;20029;-39
2022/01/24 05:10:41;;;;;;;12.27;7.55;;;-1.00;99.90;;;-1.96;100.00;98716.44;5001579;28;20504;-37
2022/01/24 05:24:07;;;;;;;12.82;7.75;;;-1.10;99.90;;;-2.00;100.00;98727.53;4962393;28;20049;-38
2022/01/24 05:26:33;;;;;;;12.00;7.40;;;-1.10;99.90;;;-2.01;100.00;98724.06;5001554;28;20026;-38
2022/01/24 05:28:59;;;;;;;12.68;7.75;;;-1.00;99.90;;;-2.01;100.00;98723.16;4996919;28;20476;-40
2022/01/24 05:31:25;;;;;;;11.18;7.30;;;-1.10;99.90;;;-2.04;100.00;98725.66;4999347;28;20479;-39
2022/01/24 05:33:51;;;;;;;13.25;7.43;;;-1.10;99.90;;;-2.02;100.00;98729.19;4997856;28;20026;-37
2022/01/24 05:36:16;;;;;;;13.43;7.60;;;-1.10;99.90;;;-2.01;100.00;98728.34;4991243;28;20503;-39
2022/01/24 05:38:42;;;;;;;12.77;7.78;;;-1.10;99.90;;;-2.02;100.00;98732.63;4999641;28;20045;-39
2022/01/24 05:41:08;;;;;;;12.45;7.68;;;-1.10;99.90;;;-2.03;100.00;98738.63;5012050;28;20369;-38
2022/01/24 05:43:35;;;;;;;11.93;7.82;;;-1.10;99.90;;;-2.04;100.00;98736.88;5000746;28;20025;-36
2022/01/24 05:46:01;;;;;;;11.43;7.63;;;-1.10;99.90;;;-2.02;100.00;98736.94;5003066;28;20026;-34
2022/01/24 05:48:27;;;;;;;14.68;7.95;;;-1.10;99.90;;;-2.03;100.00;98738.63;4987495;28;20033;-39
2022/01/24 05:50:53;;;;;;;13.90;7.45;;;-1.10;99.90;;;-2.06;100.00;98730.78;5002153;28;20036;-44
2022/01/24 05:53:18;;;;;;;12.35;7.72;;;-1.10;99.90;;;-2.05;100.00;98726.47;4993068;28;20140;-37
2022/01/24 05:55:44;;;;;;;12.10;7.72;;;-1.10;99.90;;;-2.07;100.00;98723.84;5006183;28;20041;-37
2022/01/24 05:58:10;;;;;;;14.70;8.05;;;-1.10;99.90;;;-2.06;100.00;98722.13;5007181;28;20479;-38
2022/01/24 06:00:36;;;;;;;12.57;8.10;;;-1.10;99.90;;;-1.97;100.00;98736.25;5005240;28;20411;-41
2022/01/24 06:03:02;;;;;;;12.77;7.80;;;-1.10;99.90;;;-1.95;100.00;98734.59;4998515;28;20121;-42
2022/01/24 06:05:28;;;;;;;15.00;8.52;;;-1.00;99.90;;;-1.90;100.00;98732.19;5005937;28;20548;-35
2022/01/24 06:07:55;;;;;;;16.92;8.80;;;-0.90;99.90;;;-1.82;100.00;98730.72;5006975;28;20034;-42
2022/01/24 06:10:21;;;;;;;14.25;8.30;;;-0.90;99.90;;;-1.74;100.00;98729.28;5008464;28;20688;-37
2022/01/24 06:12:46;;;;;;;13.10;7.90;;;-0.80;99.90;;;-1.67;100.00;98732.97;5003168;28;20042;-43
2022/01/24 06:15:13;;;;;;;13.27;8.23;;;-0.80;99.90;;;-1.66;100.00;98736.41;5000211;28;20041;-41
2022/01/24 06:17:38;;;;;;;13.75;7.70;;;-0.80;99.90;;;-1.67;100.00;98737.22;4997305;28;20030;-40
2022/01/24 06:20:06;;;;;;;14.40;7.95;;;-0.80;99.90;;;-1.63;100.00;98741.69;5002731;28;20490;-47
2022/01/24 06:22:32;;;;;;;12.25;7.95;;;-0.80;99.90;;;-1.67;100.00;98737.22;5000414;28;20129;-37
2022/01/24 06:24:57;;;;;;;13.68;8.20;;;-0.70;99.90;;;-1.60;100.00;98739.19;4995596;28;20500;-36
2022/01/24 06:27:23;;;;;;;14.82;7.95;;;-0.70;99.90;;;-1.58;100.00;98748.78;4998459;28;20087;-40
2022/01/24 06:29:49;;;;;;;12.18;7.65;;;-0.70;99.90;;;-1.58;100.00;98741.00;5000094;28;20041;-38
2022/01/24 06:32:14;;;;;;;16.05;8.48;;;-0.70;99.90;;;-1.55;100.00;98745.41;4997158;28;20034;-37
2022/01/24 06:34:40;;;;;;;13.52;8.63;;;-0.70;99.90;;;-1.53;100.00;98741.16;4992588;28;20070;-36
2022/01/24 06:37:06;;;;;;;15.00;8.80;;;-0.60;99.90;;;-1.47;100.00;98738.78;4995247;28;20094;-36
2022/01/24 06:39:32;;;;;;;14.18;8.60;;;-0.60;99.90;;;-1.41;100.00;98740.66;5002694;28;20034;-41
2022/01/24 06:42:31;;;;;;;15.68;8.07;;;-0.50;99.90;;;-1.37;100.00;98735.63;4995312;28;20413;-37
2022/01/24 06:44:52;;;;;;;12.80;7.77;;;-0.50;99.90;;;-1.28;100.00;98734.16;4994017;28;20049;-37
2022/01/24 06:47:19;;;;;;;16.13;8.48;;;-0.40;99.90;;;-1.24;100.00;98746.38;5001220;28;21621;-39
2022/01/24 06:49:44;;;;;;;13.45;8.70;;;-0.40;99.90;;;-1.16;100.00;98750.09;4998190;28;20030;-37
2022/01/24 06:52:10;;;;;;;14.02;8.48;;;-0.30;99.90;;;-1.07;100.00;98754.69;5004383;28;20034;-37
2022/01/24 06:54:37;;;;;;;16.15;9.15;;;-0.20;99.90;;;-1.01;100.00;98750.53;5001271;28;20541;-35
2022/01/24 06:57:03;;;;;;;13.60;8.10;;;-0.10;99.90;;;-0.91;100.00;98759.50;5002496;28;20030;-41
2022/01/24 06:59:30;;;;;;;13.90;8.57;;;0.00;99.90;;;-0.83;100.00;98759.72;4998976;28;20400;-36
2022/01/24 07:01:58;;;;;;;14.65;9.32;;;0.00;99.90;;;-0.77;100.00;98759.91;4999863;28;20030;-40
2022/01/24 07:04:23;;;;;;;15.95;10.15;;;0.10;99.90;;;-0.71;100.00;98767.84;5000413;28;20029;-40
2022/01/24 07:06:51;;;;;;;13.73;9.25;;;0.20;99.90;;;-0.66;100.00;98755.91;5000226;28;20120;-39
2022/01/24 07:09:16;;;;;;;15.70;9.15;;;0.20;99.90;;;-0.60;100.00;98771.63;5000459;28;20022;-38
2022/01/24 07:11:42;;;;;;;14.45;9.00;;;0.30;99.90;;;-0.58;100.00;98771.69;5002153;28;20077;-40
2022/01/24 07:14:12;;;;;;;14.75;8.88;;;0.30;99.90;;;-0.54;100.00;98775.25;5003329;28;20488;-38
2022/01/24 07:17:32;;;;;;;14.40;9.52;;;0.30;99.90;;;-0.52;100.00;98768.38;5000795;28;20056;-39
2022/01/24 07:19:30;;;;;;;16.20;9.30;;;0.40;99.90;;;-0.44;100.00;98780.72;4995790;28;20407;-39
2022/01/24 07:21:58;;;;;;;17.20;9.65;;;0.40;99.90;;;-0.36;100.00;98787.84;4996667;28;20021;-42
2022/01/24 07:24:25;;;;;;;13.75;9.70;;;0.50;99.90;;;-0.28;100.00;98792.44;4998376;28;20054;-37
2022/01/24 07:26:51;;;;;;;14.20;9.25;;;0.50;99.90;;;-0.22;100.00;98784.81;5005522;28;20112;-35
2022/01/24 07:29:18;;;;;;;15.90;8.50;;;0.60;99.90;;;-0.16;100.00;98784.13;5003210;28;20037;-38
2022/01/24 07:31:44;;;;;;;15.30;9.48;;;0.70;99.90;;;-0.10;100.00;98786.88;5001231;28;20514;-36
2022/01/24 07:34:10;;;;;;;15.07;10.07;;;0.80;99.90;;;-0.03;100.00;98795.72;5005177;28;20081;-38
2022/01/24 07:36:36;;;;;;;14.60;9.93;;;0.80;99.90;;;0.03;100.00;98792.41;4999696;28;20460;-37
2022/01/24 07:39:02;;;;;;;16.38;9.00;;;0.80;99.90;;;0.08;100.00;98791.69;4999821;28;20045;-38
2022/01/24 07:41:30;;;;;;;15.32;10.13;;;0.90;99.90;;;0.14;100.00;98785.78;5010142;28;20038;-38
2022/01/24 07:43:57;;;;;;;14.65;9.38;;;1.00;99.90;;;0.13;100.00;98777.13;5007545;28;20022;-36
2022/01/24 07:46:23;;;;;;;15.20;10.13;;;1.00;99.90;;;0.22;100.00;98788.59;4995212;28;20055;-39
2022/01/24 07:48:49;;;;;;;18.40;10.30;;;1.10;99.90;;;0.29;100.00;98803.50;4996353;28;20046;-40
2022/01/24 07:51:16;;;;;;;15.52;10.18;;;1.10;99.90;;;0.29;100.00;98793.13;4998636;28;20030;-39
2022/01/24 07:53:43;;;;;;;18.33;11.30;;;1.20;99.90;;;0.35;100.00;98807.09;4997670;28;20033;-40
2022/01/24 07:56:10;;;;;;;15.50;10.52;;;1.20;99.90;;;0.32;100.00;98794.06;4999740;28;20030;-40
2022/01/24 07:58:36;;;;;;;19.77;11.05;;;1.20;99.90;;;0.46;100.00;98804.78;5003054;28;20025;-39
2022/01/24 08:01:03;;;;;;;13.88;9.60;;;1.30;99.90;;;0.60;100.00;98819.84;4993788;28;20030;-40
2022/01/24 08:03:28;;;;;;;14.90;9.95;;;1.40;99.90;;;0.68;100.00;98818.31;5001768;28;20037;-38
2022/01/24 08:05:55;;;;;;;16.25;10.32;;;1.50;99.90;;;0.69;100.00;98802.78;4996460;28;20125;-39
2022/01/24 08:08:21;;;;;;;17.70;10.82;;;1.60;99.90;;;0.70;100.00;98803.66;4999400;28;20034;-38
2022/01/24 08:10:47;;;;;;;15.38;10.43;;;1.60;99.90;;;0.83;100.00;98821.31;4998000;28;20538;-39
2022/01/24 08:13:13;;;;;;;16.58;10.18;;;1.70;99.90;;;0.90;100.00;98823.22;4997416;28;20041;-37
2022/01/24 08:15:40;;;;;;;16.77;10.55;;;1.70;99.90;;;0.99;100.00;98824.25;5000186;28;21940;-37
2022/01/24 08:18:06;;;;;;;16.75;10.40;;;1.80;99.90;;;1.07;100.00;98826.19;4996247;28;20057;-40
2022/01/24 08:20:33;;;;;;;21.65;10.60;;;1.90;99.90;;;1.17;100.00;98831.59;4994681;28;20030;-36
2022/01/24 08:23:00;;;;;;;16.85;11.18;;;2.00;99.90;;;1.21;100.00;98816.13;5000474;28;20033;-40
2022/01/24 08:25:26;;;;;;;18.15;10.70;;;2.00;99.90;;;1.29;100.00;98818.91;4997174;28;20109;-36
2022/01/24 08:27:53;;;;;;;14.90;10.05;;;2.10;99.90;;;1.37;100.00;98819.09;4998745;28;20073;-40
2022/01/24 08:30:22;;;;;;;14.85;10.25;;;2.20;99.90;;;1.46;100.00;98821.91;4983754;28;20038;-37
2022/01/24 08:32:49;;;;;;;13.68;9.25;;;2.30;99.90;;;1.44;100.00;98801.06;5002875;28;20026;-38
2022/01/24 08:35:18;;;;;;;16.02;10.52;;;2.30;99.90;;;1.47;100.00;98808.03;5004175;28;20035;-40
2022/01/24 08:37:44;;;;;;;17.88;11.23;;;2.40;99.90;;;1.55;100.00;98806.50;5001053;28;20602;-38
2022/01/24 08:40:20;;;;;;;14.15;10.23;;;2.40;99.90;;;1.61;100.00;98809.19;5005548;28;20400;-40
2022/01/24 08:42:55;;;;;;;15.18;10.27;;;2.40;99.90;;;1.71;100.00;98805.97;5004263;28;20205;-39
2022/01/24 08:48:07;;;;;;;17.27;10.90;;;2.60;99.90;;;1.84;100.00;98811.41;5007782;28;20618;-39
2022/01/24 08:50:33;;;;;;;16.90;9.93;;;2.70;99.90;;;1.86;100.00;98804.53;5004579;28;20026;-36
2022/01/24 08:52:59;;;;;;;13.90;9.40;;;2.70;99.90;;;1.98;100.00;98809.97;5004900;28;20464;-40
2022/01/24 08:55:30;;;;;;;14.50;9.43;;;2.80;99.90;;;2.09;100.00;98815.38;4997395;28;20041;-36
2022/01/24 08:57:57;;;;;;;14.63;9.35;;;2.90;99.90;;;2.18;100.00;98805.16;4999663;28;20033;-39
2022/01/24 09:00:24;;;;;;;16.48;10.35;;;3.00;99.90;;;2.25;100.00;98803.53;4996146;28;20087;-37
2022/01/24 09:02:51;;;;;;;14.93;9.23;;;3.10;99.90;;;2.34;100.00;98808.91;4995864;28;20387;-39
2022/01/24 09:05:18;;;;;;;12.68;8.45;;;3.10;99.90;;;2.40;100.00;98810.75;5002075;28;20527;-37
2022/01/24 09:07:44;;;;;;;14.30;9.32;;;3.20;99.90;;;2.36;100.00;98807.22;5000136;28;20057;-38
2022/01/24 09:10:11;;;;;;;14.80;9.48;;;3.20;99.90;;;2.36;100.00;98795.94;4995569;28;20144;-37
2022/01/24 09:12:37;;;;;;;16.48;9.90;;;3.20;99.90;;;2.52;100.00;98800.56;4994846;28;20083;-35
2022/01/24 09:15:04;;;;;;;13.68;8.98;;;3.30;99.90;;;2.63;100.00;98795.53;4996012;28;20404;-38
2022/01/24 09:17:30;;;;;;;13.52;9.10;;;3.40;99.90;;;2.66;100.00;98795.59;4997706;28;20333;-37
2022/01/24 09:19:56;;;;;;;16.98;10.50;;;3.50;99.90;;;2.62;100.00;98801.59;5001113;28;20046;-38
2022/01/24 09:22:22;;;;;;;13.82;10.27;;;3.40;99.90;;;2.56;100.00;98807.56;5000474;28;20084;-38
2022/01/24 09:24:47;;;;;;;17.80;9.90;;;3.40;99.90;;;2.55;100.00;98804.94;4991522;28;20027;-41
2022/01/24 09:27:15;;;;;;;14.30;10.10;;;3.30;99.90;;;2.43;100.00;98810.81;5001336;28;20191;-35
2022/01/24 09:29:41;;;;;;;13.73;10.20;;;3.30;99.90;;;2.31;100.00;98814.06;5008166;28;20575;-41
2022/01/24 09:32:07;;;;;;;13.80;10.18;;;3.20;99.90;;;2.25;100.00;98819.16;4983002;28;20404;-37
2022/01/24 09:34:33;;;;;;;14.07;8.90;;;3.10;99.90;;;2.19;100.00;98814.72;5000564;28;20038;-37
2022/01/24 09:36:59;;;;;;;13.18;9.13;;;3.10;99.90;;;2.11;100.00;98811.09;4998297;28;20520;-41
2022/01/24 09:39:25;;;;;;;12.52;9.60;;;3.00;99.90;;;2.11;100.00;98805.88;4999681;28;20117;-39
2022/01/24 09:41:52;;;;;;;14.82;8.98;;;3.00;99.90;;;2.14;100.00;98812.88;5000301;28;20045;-39
2022/01/24 09:44:18;;;;;;;12.52;9.15;;;3.00;99.90;;;2.16;100.00;98808.59;4997002;28;20190;-39
2022/01/24 09:46:45;;;;;;;13.23;9.05;;;3.00;99.90;;;2.08;100.00;98809.31;4998609;28;20048;-38
2022/01/24 09:49:13;;;;;;;11.10;8.05;;;3.00;99.90;;;2.12;100.00;98806.75;5004763;28;20192;-38
2022/01/24 09:51:39;;;;;;;12.02;8.82;;;3.00;99.90;;;2.10;100.00;98809.34;5003896;28;20681;-38
2022/01/24 09:54:07;;;;;;;14.05;9.13;;;3.00;99.90;;;2.14;100.00;98816.34;5007236;28;20034;-38
2022/01/24 09:56:36;;;;;;;15.32;9.57;;;3.00;99.90;;;2.18;100.00;98823.38;5001845;28;20030;-39
2022/01/24 09:59:03;;;;;;;12.57;8.57;;;3.00;99.90;;;2.22;100.00;98821.72;5003759;28;20030;-39
2022/01/24 10:01:30;;;;;;;12.68;8.80;;;3.10;99.90;;;2.31;100.00;98811.47;4997452;28;20030;-37
2022/01/24 10:04:19;;;;;;;14.57;9.30;;;3.10;99.90;;;2.33;100.00;98812.38;5001995;28;20033;-33
2022/01/24 10:07:03;;;;;;;14.55;9.35;;;3.20;99.90;;;2.43;100.00;98808.22;4998305;28;20460;-38
2022/01/24 10:09:33;;;;;;;13.57;8.50;;;3.20;99.90;;;2.41;100.00;98810.78;5001420;28;20567;-35
2022/01/24 10:12:12;;;;;;;14.00;7.68;;;3.20;99.90;;;2.42;100.00;98815.16;5000055;28;20666;-38
2022/01/24 10:17:34;;;;;;;12.25;6.97;;;3.30;99.90;;;2.53;99.75;98807.53;5007109;28;20040;-38
2022/01/24 10:20:28;;;;;;;10.43;7.53;;;3.40;99.90;;;2.52;100.00;98803.16;5006014;28;20036;-38
2022/01/24 10:23:11;;;;;;;16.17;10.07;;;3.40;99.90;;;2.75;98.95;98805.31;4994402;28;20044;-38
2022/01/24 10:25:59;;;;;;;14.85;9.52;;;3.40;99.90;;;2.74;99.51;98809.63;4999121;28;20025;-40
2022/01/24 10:28:39;;;;;;;13.38;9.40;;;3.50;99.90;;;2.74;99.73;98807.00;4998108;28;20033;-37
2022/01/24 10:31:18;;;;;;;17.42;8.98;;;3.50;99.90;;;2.83;97.62;98809.75;5003501;28;20041;-41
2022/01/24 10:36:50;;;;;;;12.80;8.57;;;3.60;99.90;;;2.86;99.26;98799.41;5001632;28;20044;-38
2022/01/24 10:45:20;;;;;;;12.63;8.23;;;3.60;99.90;;;2.89;98.73;98787.25;5000531;28;20471;-38
2022/01/24 10:47:50;;;;;;;12.50;7.60;;;3.70;99.90;;;2.92;99.08;98792.53;5002901;28;20049;-39
2022/01/24 10:50:28;;;;;;;12.48;8.50;;;3.70;99.90;;;3.19;95.49;98792.94;5006734;28;20119;-36
2022/01/24 10:52:57;;;;;;;11.82;7.53;;;3.80;99.90;;;3.10;96.09;98782.38;4994291;28;20052;-39
2022/01/24 10:55:26;;;;;;;11.60;7.93;;;3.90;99.90;;;3.05;97.13;98784.03;4998253;28;20034;-38
2022/01/24 10:58:07;;;;;;;11.10;7.53;;;3.90;99.90;;;3.08;96.22;98776.28;4998880;28;20038;-39
2022/01/24 11:00:35;;;;;;;9.45;6.80;;;3.90;99.90;;;3.03;96.23;98773.63;5000974;28;20026;-37
2022/01/24 11:03:06;;;;;;;10.02;6.30;;;3.90;99.90;;;3.06;96.21;98765.81;4997817;28;20058;-38
2022/01/24 11:05:38;;;;;;;8.65;5.90;;;3.90;99.90;;;3.05;95.66;98764.09;4999489;28;20022;-37
2022/01/24 11:08:11;;;;;;;9.85;6.60;;;3.90;99.90;;;3.15;95.74;98764.22;5003255;28;20110;-37
2022/01/24 11:10:44;;;;;;;10.45;7.15;;;3.90;99.90;;;3.31;95.01;98766.19;4992002;28;20096;-37
2022/01/24 11:13:12;;;;;;;9.48;6.85;;;4.00;99.90;;;3.42;93.72;98763.72;5002772;28;20499;-40
2022/01/24 11:15:41;;;;;;;8.95;6.45;;;4.10;99.90;;;3.47;93.16;98764.66;5004799;28;20329;-37
2022/01/24 11:18:08;;;;;;;9.25;6.03;;;4.20;99.90;;;3.51;93.67;98756.00;4996754;28;20492;-37
2022/01/24 11:20:39;;;;;;;8.02;5.13;;;4.30;99.90;;;3.53;93.36;98766.47;4993861;28;20435;-37
2022/01/24 11:23:06;;;;;;;8.10;5.00;;;4.30;99.90;;;3.72;90.98;98757.16;5000792;28;20037;-38
2022/01/24 11:25:40;;;;;;;6.07;4.20;;;4.40;99.90;;;3.69;91.08;98757.09;4994289;28;20680;-37
2022/01/24 11:28:07;;;;;;;6.63;4.80;;;4.40;99.90;;;3.80;89.63;98755.50;5002462;28;20529;-35
2022/01/24 11:31:17;;;;;;;6.95;4.50;;;4.50;99.90;;;3.75;90.43;98752.84;5001383;28;20166;-41
2022/01/24 11:33:54;;;;;;;9.98;5.88;;;4.50;99.90;;;3.84;90.09;98749.47;4977273;28;20025;-38
2022/01/24 11:36:37;;;;;;;9.82;6.65;;;4.60;99.90;;;3.88;90.78;98748.66;4985533;28;20084;-39
2022/01/24 11:39:03;;;;;;;;;;;4.60;99.90;;;3.95;87.53;98760.03;4997441;28;20515;-37
2022/01/24 11:41:34;;;;;;;8.15;5.82;;;4.70;99.90;;;3.83;89.54;98761.63;4998078;28;20097;-40
2022/01/24 11:44:11;;;;;;;8.23;5.40;;;4.60;99.90;;;3.80;90.03;98756.41;4993219;28;20112;-39
2022/01/24 11:46:55;;;;;;;11.90;6.22;;;4.60;99.90;;;3.87;89.49;98741.66;4999518;28;20508;-38
2022/01/24 11:49:27;;;;;;;12.63;6.68;;;4.60;99.90;;;3.84;89.82;98757.31;5003657;28;20084;-38
2022/01/24 11:52:07;;;;;;;9.60;6.40;;;4.60;99.90;;;3.80;89.88;98748.56;4997643;28;20562;-37
2022/01/24 11:57:40;;;;;;;10.32;6.70;;;4.60;99.90;;;3.80;90.91;98755.50;5001441;28;20048;-36
2022/01/24 12:00:06;;;;;;;11.85;6.50;;;4.60;99.90;;;3.85;89.91;98751.22;4989727;28;20354;-40
2022/01/24 12:02:49;;;;;;;12.43;7.05;;;4.60;99.90;;;3.91;89.59;98748.69;5002868;28;20033;-40